Tiempo atmosférico en la estación meteorológica de Fuencaliente, Ciudad Real (640 m.)



Fecha
DESCASC
Temp. máxima en grados centígrados (hora)
DESCASC
Temp. mínima en grados centígrados (hora)
DESCASC
Temp. media en grados centígrados
DESCASC
Racha de viento máxima en m/sg (hora)
DESCASC
Velocidad máxima media en intervalos de 10 minutos(hora)
DESCASC
Precipitaciones diarias en mm
DESCASC
Precipitaciones de 00:00 a 06:00 en mm
DESCASC
Precipitaciones de 06:00 a 12:00 en mm
DESCASC
Precipitaciones de 12:00 a 18:00 en mm
DESCASC
Precipitaciones de 18:00 a 24:00 en mm
DESCASC
26-01-2021 12.7 (15:40) 10.4 (00:00) 11.5 4.72 (01:00) 2.22 (11:30) 1.4 0 0.2 0.6 0.6
24-01-2021 12.7 (16:00) 8 (00:00) 10.3 13.33 (03:30) 4.72 (04:50) 14.6 14.4 0.2 0 0
25-01-2021 13.1 (16:40) 7.9 (00:00) 10.5 12.78 (15:20) 5.83 (15:50) 12.6 3.2 3.8 5.4 0.2
21-01-2021 10.6 (13:50) 7.9 (00:00) 9.3 13.89 (12:40) 5.56 (23:50) 8.8 5.6 2.8 0.2 0.2
22-01-2021 11.5 (05:10) 6.1 (00:00) 8.8 16.67 (08:00) 7.78 (08:00) 11.4 6.2 1.4 3.8 0
23-01-2021 10.2 (23:59) 5.3 (00:00) 7.8 11.39 (05:00) 3.89 (05:00) 12.8 0.6 0 5.2 7
28-12-2020 10.1 (14:10) 3 (00:00) 6.6 14.72 (00:30) 6.39 (00:30) 8.8 0 8.8 0 0
20-01-2021 9.3 (18:00) 2.8 (00:00) 6.1 12.78 (20:00) 5 (22:20) 10 0 1.8 1.4 6.8
29-12-2020 8.8 (16:40) 1.8 (00:00) 5.3 8.61 (13:50) 4.72 (12:50) 0 0 0 0 0
08-01-2021 5.8 (23:59) 1.4 (00:00) 3.6 7.22 (06:30) 3.61 (06:40) 30.6 2.8 4 15 8.8
07-01-2021 3.5 (04:10) 1 (00:00) 2.3 8.33 (22:40) 3.89 (23:10) 10 3.4 4.4 2.2 0
16-01-2021 15.8 (14:00) 0.6 (00:00) 8.2 6.94 (12:50) 3.06 (02:40) 0 0 0 0 0
18-01-2021 18.6 (15:10) 0.4 (00:00) 9.5 4.72 (03:50) 2.78 (10:20) 0 0 0 0 0
19-01-2021 15 (15:20) -0.4 (00:00) 7.3 5.28 (16:50) 3.89 (16:50) 0 0 0 0 0
01-01-2021 7.4 (16:20) -0.5 (-00:0) 3.5 11.39 (00:30) 5 (01:30) 2.6 2.6 0 0 0
15-01-2021 13.8 (13:50) -0.5 (-00:0) 6.7 8.89 (13:30) 4.17 (15:40) 0 0 0 0 0
17-01-2021 19.1 (16:20) -0.6 (-00:0) 9.3 5.83 (13:40) 3.06 (13:30) 0 0 0 0 0
11-01-2021 6.8 (15:20) -0.7 (-00:0) 3.1 11.39 (00:10) 5.83 (00:10) 0 0 0 0 0
09-01-2021 6.2 (00:30) -1.3 (-00:0) 2.4 9.17 (05:30) 5.28 (06:00) 9 6.6 1.8 0.6 0
06-01-2021 8.1 (14:40) -1.6 (-00:0) 3.3 6.67 (00:10) 3.33 (08:00) 0.8 0 0 0 0.8
10-01-2021 6.4 (13:40) -1.7 (00:40) 2.4 11.11 (23:59) 6.39 (23:59) 1.6 0 1.6 0 0
30-12-2020 9.1 (16:00) -2.5 (-00:0) 3.3 4.44 (13:50) 1.67 (02:00) 0 0 0 0 0
14-01-2021 13.9 (16:40) -2.6 (08:10) 5.6 4.17 (19:10) 2.5 (19:10) 0 0 0 0 0
13-01-2021 15.3 (15:20) -2.7 (-00:0) 6.3 5.83 (14:20) 3.33 (14:20) 0 0 0 0 0
02-01-2021 7.5 (16:00) -2.8 (-00:0) 2.4 5.83 (14:10) 2.78 (14:10) 0 0 0 0 0
31-12-2020 10.3 (14:20) -3.4 (-00:0) 3.5 13.33 (23:59) 4.44 (23:59) 6.2 0 0 0.2 6
04-01-2021 2.4 (15:00) -4.1 (-00:0) -0.8 3.33 (11:40) 1.94 (14:20) 1 0 0 1 0
12-01-2021 11.2 (16:20) -4.2 (-00:0) 3.5 5 (02:50) 2.5 (00:40) 0 0 0 0 0
05-01-2021 8.1 (13:30) -4.7 (-00:0) 1.7 8.61 (22:50) 3.33 (23:50) 0.2 0 0.2 0 0
03-01-2021 8.4 (14:40) -5.1 (-00:0) 1.6 8.06 (13:30) 4.72 (13:30) 0 0 0 0 0

Gráficas

Temp. máximas Temp. mínimas Temp. medias Precipitaciones Rachas de viento máximas Velocidades máximas media en intervalos de 10 minutos

Datos horarios

Fecha y hora oficial Temperatura (ºC) Velocidad del viento (km/h) Dirección del viento Racha (km/h) Dirección de racha Precipitación (mm) Presión (hPa) Tendencia (hPa) Humedad (%)
2021-01-26 23:00:00 11.9 0 Calma 4 Nordeste 0 -- -- 97
2021-01-26 22:00:00 12 0 Calma 4 Oeste 0 -- -- 97
2021-01-26 21:00:00 12 0 Calma 5 Este 0 -- -- 97
2021-01-26 20:00:00 12.2 0 Calma 6 Sudeste 0.2 -- -- 97
2021-01-26 19:00:00 12.3 3 Sudeste 7 Sudeste 0.4 -- -- 96
2021-01-26 18:00:00 12.5 4 Sudeste 7 Sur 0.2 -- -- 96
2021-01-26 17:00:00 12.5 4 Este 10 Sur 0 -- -- 95
2021-01-26 16:00:00 12.6 4 Sur 10 Sudeste 0 -- -- 95
2021-01-26 15:00:00 12.5 4 Sudeste 12 Sur 0.2 -- -- 96
2021-01-26 14:00:00 12.6 6 Sur 10 Sudoeste 0.2 -- -- 96
2021-01-26 13:00:00 12.4 4 Sudeste 9 Sudeste 0 -- -- 97
2021-01-26 12:00:00 11.3 6 Sudeste 13 Sudeste 0.2 -- -- 97
2021-01-26 11:00:00 11 4 Sudeste 9 Sudeste 0 -- -- 97
2021-01-26 10:00:00 10.8 3 Sur 8 Sudeste 0 -- -- 96
2021-01-26 09:00:00 10.5 0 Calma 6 Sur 0 -- -- 95
2021-01-26 08:00:00 10.6 3 Oeste 8 Sudoeste 0 -- -- 94
2021-01-26 07:00:00 10.6 2 Nordeste 8 Nordeste 0 -- -- 95
2021-01-26 06:00:00 10.6 0 Calma 8 Este 0 -- -- 94
2021-01-26 05:00:00 10.7 3 Este 12 Norte 0 -- -- 93
2021-01-26 04:00:00 10.9 4 Nordeste 17 Nordeste 0 -- -- 92
2021-01-26 03:00:00 11.3 4 Este 15 Este 0 -- -- 92
2021-01-26 02:00:00 11.4 6 Nordeste 17 Nordeste 0 -- -- 91
2021-01-26 01:00:00 11.6 6 Nordeste 17 Norte 0 -- -- 92
2021-01-26 00:00:00 11.5 2 Sudoeste 16 Oeste 0 -- -- 93
2021-01-25 23:00:00 11.4 2 Sudoeste 11 Sudeste 0.2 -- -- 93
2021-01-25 22:00:00 11.4 2 Sudeste 22 Oeste 0 -- -- 93
2021-01-25 21:00:00 11.8 5 Oeste 21 Oeste 0 -- -- 91
2021-01-25 20:00:00 11.9 7 Sudoeste 22 Noroeste 0 -- -- 89
2021-01-25 19:00:00 11.7 8 Oeste 23 Noroeste 0 -- -- 90
2021-01-25 18:00:00 12 6 Noroeste 24 Noroeste 0 -- -- 87
2021-01-25 17:00:00 12.8 8 Oeste 35 Oeste 0 -- -- 83
2021-01-25 16:00:00 12.9 14 Oeste 46 Oeste 0 -- -- 87
2021-01-25 15:00:00 11.9 13 Oeste 46 Oeste 1.2 -- -- 93
2021-01-25 14:00:00 11.1 5 Nordeste 24 Noroeste 3.4 -- -- 95
2021-01-25 13:00:00 10 4 Sudeste 19 Sur 0.8 -- -- 96
2021-01-25 12:00:00 9.7 5 Sudeste 14 Sur 0.8 -- -- 95
2021-01-25 11:00:00 9.6 5 Este 15 Sudeste 1.2 -- -- 94
2021-01-25 10:00:00 9.5 4 Sudeste 31 Sur 1 -- -- 93
2021-01-25 09:00:00 9.3 15 Sudoeste 35 Sudoeste 0 -- -- 93
2021-01-25 08:00:00 9.1 7 Oeste 32 Sur 0.6 -- -- 95
2021-01-25 07:00:00 8.6 7 Sur 20 Sur 0.2 -- -- 95
2021-01-25 06:00:00 8.1 5 Este 13 Sudeste 1.6 -- -- 95
2021-01-25 05:00:00 7.9 2 Este 7 Este 1.6 -- -- 94
2021-01-25 04:00:00 8.5 5 Sur 14 Sur 0 -- -- 88
2021-01-25 03:00:00 8.9 5 Sudoeste 19 Oeste 0 -- -- 85
2021-01-25 02:00:00 8.6 4 Este 12 Este 0 -- -- 86
2021-01-25 01:00:00 8.6 6 Sudeste 13 Sudeste 0 -- -- 85
2021-01-25 00:00:00 8 0 Calma 12 Oeste 0 -- -- 85
2021-01-24 23:00:00 8.9 8 Oeste 19 Oeste 0 -- -- 84
2021-01-24 22:00:00 8.8 4 Sur 10 Sudoeste 0 -- -- 85
2021-01-24 21:00:00 8.8 3 Oeste 12 Oeste 0 -- -- 83
2021-01-24 20:00:00 9.1 3 Sudoeste 15 Oeste 0 -- -- 79
2021-01-24 19:00:00 9.1 2 Norte 18 Oeste 0 -- -- 77
2021-01-24 18:00:00 10.3 12 Oeste 28 Sudoeste 0 -- -- 74
2021-01-24 17:00:00 11.1 8 Oeste 26 Oeste 0 -- -- 72
2021-01-24 16:00:00 12.7 10 Oeste 26 Sudoeste 0 -- -- 66
2021-01-24 15:00:00 12.5 9 Sudoeste 32 Sudoeste 0 -- -- 70
2021-01-24 14:00:00 11.8 9 Oeste 24 Sudoeste 0 -- -- 76
2021-01-24 13:00:00 10.7 8 Oeste 26 Sudoeste 0 -- -- 77
2021-01-24 12:00:00 10.5 8 Noroeste 26 Noroeste 0 -- -- 80
2021-01-24 11:00:00 10.1 6 Noroeste 23 Oeste 0 -- -- 78
2021-01-24 10:00:00 9.5 4 Este 24 Noroeste 0 -- -- 85
2021-01-24 09:00:00 8.1 5 Nordeste 28 Oeste 0 -- -- 87
2021-01-24 08:00:00 8.6 8 Oeste 33 Oeste 0 -- -- 87
2021-01-24 07:00:00 9.7 10 Oeste 29 Oeste 0.2 -- -- 87
2021-01-24 06:00:00 11.1 11 Oeste 41 Sudoeste 2 -- -- 93
2021-01-24 05:00:00 10.9 13 Noroeste 44 Oeste 1.6 -- -- 94
2021-01-24 04:00:00 10.9 16 Noroeste 48 Noroeste 1.8 -- -- 93
2021-01-24 03:00:00 10.7 9 Noroeste 37 Norte 1 -- -- 93
2021-01-24 02:00:00 10.5 7 Norte 23 Norte 5.2 -- -- 93
2021-01-24 01:00:00 10.4 9 Norte 31 Norte 2.8 -- -- 93
2021-01-24 00:00:00 10.2 9 Noroeste 31 Noroeste 1.2 -- -- 93
2021-01-23 23:00:00 9.6 8 Nordeste 24 Noroeste 2 -- -- 95
2021-01-23 22:00:00 9.2 6 Nordeste 23 Este 0.2 -- -- 95
2021-01-23 21:00:00 8.9 8 Este 31 Sur 2.6 -- -- 95
2021-01-23 20:00:00 8.7 8 Sur 20 Sudeste 1 -- -- 94
2021-01-23 19:00:00 8.5 8 Sudeste 23 Sur 0 -- -- 94
2021-01-23 18:00:00 7.9 3 Sur 15 Oeste 2 -- -- 95
2021-01-23 17:00:00 7.5 4 Sur 15 Oeste 1.8 -- -- 95
2021-01-23 16:00:00 7.3 8 Sur 24 Sudeste 1.4 -- -- 94
2021-01-23 15:00:00 7.7 13 Sur 23 Sur 0 -- -- 89
2021-01-23 14:00:00 8.9 11 Sur 25 Sudoeste 0 -- -- 79
2021-01-23 13:00:00 9 6 Sur 28 Sur 0 -- -- 76
2021-01-23 12:00:00 7.2 8 Este 25 Este 0 -- -- 84
2021-01-23 11:00:00 6 4 Sur 30 Sur 0 -- -- 90
2021-01-23 10:00:00 5.3 4 Este 18 Sur 0 -- -- 91
2021-01-23 09:00:00 5.4 6 Oeste 24 Noroeste 0 -- -- 89
2021-01-23 08:00:00 5.5 5 Oeste 17 Noroeste 0 -- -- 88
2021-01-23 07:00:00 5.6 7 Oeste 23 Oeste 0 -- -- 87
2021-01-23 06:00:00 5.5 12 Oeste 31 Oeste 0 -- -- 90
2021-01-23 05:00:00 5.9 14 Sudoeste 41 Sudoeste 0 -- -- 88
2021-01-23 04:00:00 6.1 10 Oeste 33 Oeste 0.4 -- -- 88
2021-01-23 03:00:00 6.5 9 Oeste 30 Sudoeste 0.2 -- -- 86
2021-01-23 02:00:00 6.7 13 Oeste 33 Oeste 0 -- -- 84
2021-01-23 01:00:00 6.6 3 Oeste 21 Noroeste 0 -- -- 85
2021-01-23 00:00:00 6.6 7 Oeste 22 Sudoeste 0 -- -- 86
2021-01-22 23:00:00 6.5 16 Sudoeste 34 Sudoeste 0 -- -- 85
2021-01-22 22:00:00 6.1 6 Sudoeste 26 Oeste 0 -- -- 84
2021-01-22 21:00:00 6.2 8 Sudoeste 21 Oeste 0 -- -- 85
2021-01-22 20:00:00 6.3 7 Sudoeste 22 Sudoeste 0 -- -- 83
2021-01-22 19:00:00 6.5 13 Sudoeste 38 Oeste 0 -- -- 81
2021-01-22 18:00:00 7.6 14 Sudoeste 46 Oeste 0 -- -- 79
2021-01-22 17:00:00 7.4 9 Oeste 44 Oeste 0.6 -- -- 84
2021-01-22 16:00:00 7.6 10 Oeste 38 Oeste 0.8 -- -- 82
2021-01-22 15:00:00 8.5 15 Oeste 44 Noroeste 0.4 -- -- 81
2021-01-22 14:00:00 7.8 -- -- -- -- 1.8 -- -- 85
2021-01-22 13:00:00 8.3 14 Oeste 60 Oeste 0.2 -- -- 83
2021-01-22 12:00:00 8.9 16 Oeste 49 Sudoeste 0 -- -- 75
2021-01-22 11:00:00 8.8 18 Oeste 42 Sudoeste 0.2 -- -- 79
2021-01-22 10:00:00 8.7 13 Oeste 45 Sudoeste 0 -- -- 82
2021-01-22 09:00:00 9.1 16 Oeste 52 Oeste 0.6 -- -- 85
2021-01-22 08:00:00 10.1 28 Sudoeste 60 Sudoeste 0 -- -- 79
2021-01-22 07:00:00 10.9 17 Oeste 58 Sudoeste 0.6 -- -- 84
2021-01-22 06:00:00 11 6 Noroeste 41 Sudoeste 0.2 -- -- 90
2021-01-22 05:00:00 11.4 8 Nordeste 37 Sur 0.8 -- -- 93
2021-01-22 04:00:00 11.1 20 Sur 40 Sudeste 2.2 -- -- 94
2021-01-22 03:00:00 10.3 8 Sur 33 Sudoeste 2.2 -- -- 95
2021-01-22 02:00:00 10.1 10 Sur 24 Sur 0.6 -- -- 95
2021-01-22 01:00:00 10 13 Sudoeste 35 Sudoeste 0.2 -- -- 94
2021-01-22 00:00:00 9.9 16 Sudoeste 35 Oeste 0.2 -- -- 92
2021-01-21 23:00:00 10.2 12 Sur 37 Sur 0 -- -- 90
2021-01-21 22:00:00 10.3 12 Sudeste 34 Este 0 -- -- 89
2021-01-21 21:00:00 10.2 7 Este 45 Sur 0 -- -- 90
2021-01-21 20:00:00 10 13 Sudeste 33 Sudeste 0 -- -- 91
2021-01-21 19:00:00 10 14 Sur 35 Sur 0 -- -- 91
2021-01-21 18:00:00 10 16 Sur 49 Sur 0 -- -- 91
2021-01-21 17:00:00 10.4 14 Sur 47 Sur 0 -- -- 86
2021-01-21 16:00:00 10.3 16 Sur 36 Sur 0 -- -- 84
2021-01-21 15:00:00 10.4 12 Sudoeste 37 Sudoeste 0 -- -- 81
2021-01-21 14:00:00 10.6 17 Sudoeste 41 Sudoeste 0 -- -- 78
2021-01-21 13:00:00 9.7 10 Sudoeste 50 Sur 0.2 -- -- 84
2021-01-21 12:00:00 8.9 9 Sudeste 30 Sur 0 -- -- 90
2021-01-21 11:00:00 8.6 8 Sur 42 Sudoeste 0 -- -- 91
2021-01-21 10:00:00 8.2 7 Sudeste 37 Sur 0 -- -- 92
2021-01-21 09:00:00 8 6 Sudeste 38 Este 1 -- -- 94
2021-01-21 08:00:00 8 6 Este 21 Nordeste 0.6 -- -- 94
2021-01-21 07:00:00 8 5 Este 26 Sudeste 1.2 -- -- 94
2021-01-21 06:00:00 8.2 4 Sudeste 27 Sur 1.4 -- -- 93
2021-01-21 05:00:00 8.1 9 Nordeste 24 Sudeste 0.8 -- -- 94
2021-01-21 04:00:00 8.1 9 Este 26 Noroeste 0.8 -- -- 93
2021-01-21 03:00:00 8.1 6 Sudeste 23 Sudeste 1.2 -- -- 92
2021-01-21 02:00:00 8.1 8 Noroeste 27 Noroeste 0.8 -- -- 92
2021-01-21 01:00:00 7.9 6 Este 22 Oeste 0.6 -- -- 92
2021-01-21 00:00:00 8.2 6 Norte 26 Norte 0.6 -- -- 88
2021-01-20 23:00:00 8.4 11 Noroeste 37 Sudoeste 0.2 -- -- 87
2021-01-20 22:00:00 8.6 14 Oeste 38 Sudoeste 1.6 -- -- 89
2021-01-20 21:00:00 9 8 Oeste 30 Sur 0.4 -- -- 90
2021-01-20 20:00:00 9 10 Sudoeste 46 Sur 2.4 -- -- 89
2021-01-20 19:00:00 9.1 4 Sur 26 Sudoeste 1.6 -- -- 93
2021-01-20 18:00:00 9.3 13 Sudoeste 28 Sudoeste 0 -- -- 94
2021-01-20 17:00:00 8.6 6 Sur 26 Sudoeste 0.2 -- -- 96
2021-01-20 16:00:00 8 8 Sur 31 Sur 0.4 -- -- 95
2021-01-20 15:00:00 8.1 12 Sur 39 Sudeste 0.2 -- -- 94
2021-01-20 14:00:00 7.2 10 Sur 27 Sur 0 -- -- 95
2021-01-20 13:00:00 6.9 5 Sur 21 Este 0.6 -- -- 94
2021-01-20 12:00:00 6.5 6 Sudeste 14 Este 0.8 -- -- 94
2021-01-20 11:00:00 6.2 3 Sur 19 Sudeste 0.8 -- -- 91
2021-01-20 10:00:00 6.4 5 Sur 17 Sudeste 0.2 -- -- 87
2021-01-20 09:00:00 6 6 Sudeste 16 Este 0 -- -- 87
2021-01-20 08:00:00 6.3 7 Sudeste 16 Sur 0 -- -- 86
2021-01-20 07:00:00 6.3 6 Sur 17 Sudeste 0 -- -- 86
2021-01-20 06:00:00 6.8 7 Sudeste 25 Sudeste 0 -- -- 86
2021-01-20 05:00:00 6.8 6 Sur 16 Este 0 -- -- 86
2021-01-20 04:00:00 6.5 4 Sur 14 Sudoeste 0 -- -- 86
2021-01-20 03:00:00 6 5 Sudoeste 12 Sudoeste 0 -- -- 89
2021-01-20 02:00:00 5.2 0 Calma 4 Sur 0 -- -- 92
2021-01-20 01:00:00 4 0 Calma 4 Nordeste 0 -- -- 95
2021-01-20 00:00:00 2.8 0 Calma 4 Nordeste 0 -- -- 94
2021-01-19 23:00:00 2.6 0 Calma 4 Nordeste 0 -- -- 91
2021-01-19 22:00:00 3.7 0 Calma 12 Sur 0 -- -- 86
2021-01-19 21:00:00 3 3 Nordeste 9 Este 0 -- -- 85
2021-01-19 20:00:00 3 0 Calma 3 Nordeste 0 -- -- 81
2021-01-19 19:00:00 5.8 0 Calma 5 Nordeste 0 -- -- 67
2021-01-19 18:00:00 10.4 4 Sudoeste 18 Sudoeste 0 -- -- 49
2021-01-19 17:00:00 12.3 8 Sudoeste 19 Sudoeste 0 -- -- 45
2021-01-19 16:00:00 13.8 8 Sur 18 Sur 0 -- -- 39
2021-01-19 15:00:00 14.4 8 Sur 18 Sudeste 0 -- -- 38
2021-01-19 14:00:00 14.5 9 Sur 17 Sur 0 -- -- 43
2021-01-19 13:00:00 13.4 7 Sur 14 Sudeste 0 -- -- 48
2021-01-19 12:00:00 12.2 5 Sudeste 14 Sudeste 0 -- -- 54
2021-01-19 11:00:00 10.4 0 Calma 5 Sudoeste 0 -- -- 64
2021-01-19 10:00:00 3.4 0 Calma 4 Este 0 -- -- 91
2021-01-19 09:00:00 -0.3 0 Calma 4 Sudoeste 0 -- -- 93
2021-01-19 08:00:00 -0.2 0 Calma 4 Nordeste 0 -- -- 92
2021-01-19 07:00:00 0.2 0 Calma 6 Oeste 0 -- -- 91
2021-01-19 06:00:00 -0.1 0 Calma 5 Sudoeste 0 -- -- 89
2021-01-19 05:00:00 0 0 Calma 4 Nordeste 0 -- -- 86
2021-01-19 04:00:00 0.3 0 Calma 4 Nordeste 0 -- -- 86
2021-01-19 03:00:00 0.5 0 Calma 2 Nordeste 0 -- -- 84
2021-01-19 02:00:00 0.8 0 Calma 2 Sudoeste 0 -- -- 84
2021-01-19 01:00:00 0.8 0 Calma 2 Nordeste 0 -- -- 86
2021-01-19 00:00:00 1.3 0 Calma 2 Nordeste 0 -- -- 85
2021-01-18 23:00:00 1.9 0 Calma 2 Nordeste 0 -- -- 82
2021-01-18 22:00:00 2.8 0 Calma 3 Este 0 -- -- 80
2021-01-18 21:00:00 3.7 0 Calma 4 Este 0 -- -- 78
2021-01-18 20:00:00 5 0 Calma 4 Nordeste 0 -- -- 73
2021-01-18 19:00:00 7.5 0 Calma 4 Norte 0 -- -- 61
2021-01-18 18:00:00 12.9 0 Calma 6 Sudoeste 0 -- -- 40
2021-01-18 17:00:00 18.4 5 Sudoeste 12 Sudoeste 0 -- -- 25
2021-01-18 16:00:00 18.4 7 Sudoeste 16 Sur 0 -- -- 31
2021-01-18 15:00:00 18.5 7 Sudoeste 14 Sudoeste 0 -- -- 31
2021-01-18 14:00:00 17.8 6 Sur 11 Este 0 -- -- 33
2021-01-18 13:00:00 16.6 6 Sur 10 Sudeste 0 -- -- 34
2021-01-18 12:00:00 15 4 Oeste 15 Noroeste 0 -- -- 35
2021-01-18 11:00:00 12.4 7 Noroeste 16 Noroeste 0 -- -- 38
2021-01-18 10:00:00 8.1 6 Noroeste 16 Noroeste 0 -- -- 47
2021-01-18 09:00:00 0.4 3 Sudeste 12 Norte 0 -- -- 72
2021-01-18 08:00:00 0.7 2 Sudeste 14 Norte 0 -- -- 68
2021-01-18 07:00:00 1.2 3 Norte 9 Noroeste 0 -- -- 63
2021-01-18 06:00:00 0.7 2 Sudeste 11 Nordeste 0 -- -- 64
2021-01-18 05:00:00 1 0 Calma 9 Noroeste 0 -- -- 66
2021-01-18 04:00:00 4.6 3 Sur 17 Noroeste 0 -- -- 51
2021-01-18 03:00:00 3.2 4 Oeste 13 Norte 0 -- -- 60
2021-01-18 02:00:00 2.3 0 Calma 5 Sudeste 0 -- -- 65
2021-01-18 01:00:00 2.9 0 Calma 4 Nordeste 0 -- -- 61
2021-01-18 00:00:00 5 0 Calma 15 Nordeste 0 -- -- 52
2021-01-17 23:00:00 3.6 4 Norte 13 Norte 0 -- -- 61
2021-01-17 22:00:00 3.7 0 Calma 9 Nordeste 0 -- -- 59
2021-01-17 21:00:00 4.6 2 Nordeste 12 Nordeste 0 -- -- 57
2021-01-17 20:00:00 4.7 0 Calma 5 Nordeste 0 -- -- 55
2021-01-17 19:00:00 6.8 2 Nordeste 6 Norte 0 -- -- 50
2021-01-17 18:00:00 13.1 2 Norte 12 Oeste 0 -- -- 32
2021-01-17 17:00:00 18.4 6 Oeste 20 Sudoeste 0 -- -- 22
2021-01-17 16:00:00 18.4 5 Este 18 Este 0 -- -- 19
2021-01-17 15:00:00 17.8 8 Este 18 Nordeste 0 -- -- 18
2021-01-17 14:00:00 17.5 10 Nordeste 21 Este 0 -- -- 19
2021-01-17 13:00:00 16.9 9 Este 19 Este 0 -- -- 19
2021-01-17 12:00:00 15.9 3 Sur 5 Sur 0 -- -- 24
2021-01-17 11:00:00 11.4 0 Calma 3 Sur 0 -- -- 37
2021-01-17 10:00:00 3.9 0 Calma 4 Este 0 -- -- 62
2021-01-17 09:00:00 -0.6 0 Calma 8 Nordeste 0 -- -- 64
2021-01-17 08:00:00 -0.2 0 Calma 5 Nordeste 0 -- -- 61
2021-01-17 07:00:00 0.6 0 Calma 4 Sudeste 0 -- -- 59
2021-01-17 06:00:00 0.4 0 Calma 5 Nordeste 0 -- -- 57
2021-01-17 05:00:00 2.5 0 Calma 12 Noroeste 0 -- -- 48
2021-01-17 04:00:00 3.8 0 Calma 11 Nordeste 0 -- -- 40
2021-01-17 03:00:00 7.6 6 Norte 15 Norte 0 -- -- 29
2021-01-17 02:00:00 6.6 8 Norte 15 Norte 0 -- -- 30
2021-01-17 01:00:00 2.7 2 Noroeste 10 Nordeste 0 -- -- 50
2021-01-17 00:00:00 3.5 2 Sudeste 8 Norte 0 -- -- 48
2021-01-16 23:00:00 6 4 Nordeste 9 Nordeste 0 -- -- 37
2021-01-16 22:00:00 5.4 3 Nordeste 13 Nordeste 0 -- -- 41
2021-01-16 21:00:00 5.4 3 Norte 8 Nordeste 0 -- -- 44
2021-01-16 20:00:00 7.1 4 Norte 9 Norte 0 -- -- 37
2021-01-16 19:00:00 8 2 Norte 14 Nordeste 0 -- -- 39
2021-01-16 18:00:00 11.3 2 Norte 17 Nordeste 0 -- -- 34
2021-01-16 17:00:00 14.4 7 Este 19 Este 0 -- -- 26
2021-01-16 16:00:00 15.3 5 Nordeste 18 Norte 0 -- -- 25
2021-01-16 15:00:00 15.5 9 Nordeste 23 Nordeste 0 -- -- 24
2021-01-16 14:00:00 15.8 8 Oeste 20 Nordeste 0 -- -- 20
2021-01-16 13:00:00 14.1 8 Este 25 Este 0 -- -- 23
2021-01-16 12:00:00 10.6 3 Sur 9 Sudeste 0 -- -- 44
2021-01-16 11:00:00 8.5 4 Sur 8 Sur 0 -- -- 52
2021-01-16 10:00:00 4 2 Este 9 Sudeste 0 -- -- 66
2021-01-16 09:00:00 1.4 3 Oeste 12 Noroeste 0 -- -- 66
2021-01-16 08:00:00 4.9 5 Noroeste 13 Noroeste 0 -- -- 49
2021-01-16 07:00:00 4.7 5 Noroeste 14 Noroeste 0 -- -- 50
2021-01-16 06:00:00 5 6 Noroeste 15 Noroeste 0 -- -- 49
2021-01-16 05:00:00 4.6 4 Norte 12 Norte 0 -- -- 54
2021-01-16 04:00:00 4.5 8 Norte 15 Nordeste 0 -- -- 57
2021-01-16 03:00:00 4 9 Norte 18 Norte 0 -- -- 65
2021-01-16 02:00:00 2.3 0 Calma 10 Norte 0 -- -- 68
2021-01-16 01:00:00 2.4 3 Norte 15 Noroeste 0 -- -- 71
2021-01-16 00:00:00 3.7 5 Norte 11 Norte 0 -- -- 66
2021-01-15 23:00:00 1.7 0 Calma 12 Noroeste 0 -- -- 81
2021-01-15 22:00:00 4.3 2 Norte 13 Norte 0 -- -- 69
2021-01-15 21:00:00 5 5 Nordeste 11 Norte 0 -- -- 68
2021-01-15 20:00:00 2.5 0 Calma 6 Nordeste 0 -- -- 77
2021-01-15 19:00:00 4.4 2 Norte 10 Nordeste 0 -- -- 72
2021-01-15 18:00:00 7.9 3 Nordeste 13 Norte 0 -- -- 60
2021-01-15 17:00:00 10.8 6 Nordeste 20 Este 0 -- -- 49
2021-01-15 16:00:00 12.3 11 Este 27 Este 0 -- -- 46
2021-01-15 15:00:00 13.2 13 Nordeste 28 Nordeste 0 -- -- 45
2021-01-15 14:00:00 13.5 12 Este 32 Nordeste 0 -- -- 43
2021-01-15 13:00:00 12.4 11 Este 21 Este 0 -- -- 45
2021-01-15 12:00:00 11.9 8 Nordeste 21 Este 0 -- -- 45
2021-01-15 11:00:00 10.9 11 Este 19 Nordeste 0 -- -- 52
2021-01-15 10:00:00 7.8 4 Nordeste 13 Nordeste 0 -- -- 67
2021-01-15 09:00:00 1.8 2 Este 13 Norte 0 -- -- 83
2021-01-15 08:00:00 3.6 5 Norte 12 Norte 0 -- -- 80
2021-01-15 07:00:00 5.1 6 Noroeste 14 Noroeste 0 -- -- 75
2021-01-15 06:00:00 3.1 0 Calma 11 Norte 0 -- -- 82
2021-01-15 05:00:00 1.3 0 Calma 9 Norte 0 -- -- 81
2021-01-15 04:00:00 3.7 5 Noroeste 11 Norte 0 -- -- 57
2021-01-15 03:00:00 -0.2 0 Calma 5 Este 0 -- -- 78
2021-01-15 02:00:00 -0.4 0 Calma 3 Nordeste 0 -- -- 85
2021-01-15 01:00:00 0 0 Calma 5 Oeste 0 -- -- 85
2021-01-15 00:00:00 0.3 0 Calma 5 Noroeste 0 -- -- 83
2021-01-14 23:00:00 0.7 3 Noroeste 8 Norte 0 -- -- 80
2021-01-14 22:00:00 1.4 0 Calma 8 Noroeste 0 -- -- 76
2021-01-14 21:00:00 3.1 2 Norte 9 Norte 0 -- -- 72
2021-01-14 20:00:00 6.1 5 Norte 15 Noroeste 0 -- -- 64
2021-01-14 19:00:00 6.6 6 Norte 15 Norte 0 -- -- 62
2021-01-14 18:00:00 10.2 3 Norte 12 Noroeste 0 -- -- 49
2021-01-14 17:00:00 13.4 6 Sur 13 Sudeste 0 -- -- 41
2021-01-14 16:00:00 13.6 6 Sur 13 Sur 0 -- -- 40
2021-01-14 15:00:00 12.3 5 Sur 11 Sudeste 0 -- -- 40
2021-01-14 14:00:00 13.5 6 Sur 12 Sur 0 -- -- 39
2021-01-14 13:00:00 11.4 5 Sudeste 10 Sudeste 0 -- -- 44
2021-01-14 12:00:00 10.5 5 Sur 9 Sur 0 -- -- 49
2021-01-14 11:00:00 8.3 0 Calma 3 Sudoeste 0 -- -- 56
2021-01-14 10:00:00 1.2 0 Calma 3 Nordeste 0 -- -- 84
2021-01-14 09:00:00 -2.3 0 Calma 2 Este 0 -- -- 89
2021-01-14 08:00:00 -2.5 0 Calma 4 Nordeste 0 -- -- 90
2021-01-14 07:00:00 -2 0 Calma 2 Nordeste 0 -- -- 86
2021-01-14 06:00:00 -2.1 0 Calma 0 Calma 0 -- -- 87
2021-01-14 05:00:00 -1.8 0 Calma 0 Calma 0 -- -- 84
2021-01-14 04:00:00 -1.8 0 Calma 2 Nordeste 0 -- -- 85
2021-01-14 03:00:00 -1.6 0 Calma 2 Nordeste 0 -- -- 82
2021-01-14 02:00:00 -1.2 0 Calma 2 Nordeste 0 -- -- 82
2021-01-14 01:00:00 -1.1 0 Calma 2 Nordeste 0 -- -- 81
2021-01-14 00:00:00 -1 0 Calma 3 Este 0 -- -- 79
2021-01-13 23:00:00 -0.5 0 Calma 4 Nordeste 0 -- -- 80
2021-01-13 22:00:00 -0.1 0 Calma 3 Nordeste 0 -- -- 77
2021-01-13 21:00:00 0.4 0 Calma 3 Nordeste 0 -- -- 76
2021-01-13 20:00:00 2.2 0 Calma 4 Este 0 -- -- 68
2021-01-13 19:00:00 5 2 Nordeste 12 Norte 0 -- -- 53
2021-01-13 18:00:00 9.9 6 Norte 14 Oeste 0 -- -- 34
2021-01-13 17:00:00 14.6 6 Oeste 17 Oeste 0 -- -- 26
2021-01-13 16:00:00 15.2 7 Noroeste 18 Noroeste 0 -- -- 23
2021-01-13 15:00:00 15.1 8 Oeste 21 Noroeste 0 -- -- 25
2021-01-13 14:00:00 14.5 8 Oeste 19 Sudoeste 0 -- -- 26
2021-01-13 13:00:00 13.2 6 Oeste 16 Oeste 0 -- -- 30
2021-01-13 12:00:00 11 5 Sur 8 Sudeste 0 -- -- 41
2021-01-13 11:00:00 7.8 2 Sur 3 Sur 0 -- -- 50
2021-01-13 10:00:00 1.3 0 Calma 4 Nordeste 0 -- -- 73
2021-01-13 09:00:00 -1.2 2 Sudeste 8 Norte 0 -- -- 68
2021-01-13 08:00:00 -1.5 2 Sur 6 Norte 0 -- -- 71
2021-01-13 07:00:00 -1.6 3 Este 9 Nordeste 0 -- -- 72
2021-01-13 06:00:00 -2.2 0 Calma 6 Noroeste 0 -- -- 76
2021-01-13 05:00:00 -2.4 0 Calma 4 Oeste 0 -- -- 73
2021-01-13 04:00:00 -2.2 3 Nordeste 5 Este 0 -- -- 73
2021-01-13 03:00:00 -2.6 0 Calma 5 Nordeste 0 -- -- 73
2021-01-13 02:00:00 -2.4 2 Nordeste 6 Sudoeste 0 -- -- 72
2021-01-13 01:00:00 -2.2 3 Nordeste 8 Sudoeste 0 -- -- 71
2021-01-13 00:00:00 -0.8 0 Calma 12 Norte 0 -- -- 66
2021-01-12 23:00:00 1.6 3 Nordeste 11 Nordeste 0 -- -- 53
2021-01-12 22:00:00 1.8 5 Nordeste 16 Nordeste 0 -- -- 54
2021-01-12 21:00:00 -1.2 0 Calma 5 Nordeste 0 -- -- 68
2021-01-12 20:00:00 -0.4 0 Calma 4 Nordeste 0 -- -- 69
2021-01-12 19:00:00 2.5 0 Calma 6 Nordeste 0 -- -- 58
2021-01-12 18:00:00 6.9 3 Nordeste 15 Nordeste 0 -- -- 38
2021-01-12 17:00:00 10.9 3 Sur 12 Nordeste 0 -- -- 39
2021-01-12 16:00:00 10.9 6 Nordeste 14 Este 0 -- -- 27
2021-01-12 15:00:00 10.7 5 Sur 10 Sur 0 -- -- 36
2021-01-12 14:00:00 9.8 6 Sur 11 Sudeste 0 -- -- 38
2021-01-12 13:00:00 8.7 6 Sur 10 Sudeste 0 -- -- 44
2021-01-12 12:00:00 7.7 4 Sur 9 Sur 0 -- -- 43
2021-01-12 11:00:00 5.6 0 Calma 4 Sur 0 -- -- 53
2021-01-12 10:00:00 -0.3 0 Calma 3 Sur 0 -- -- 76
2021-01-12 09:00:00 -4.2 2 Nordeste 9 Noroeste 0 -- -- 81
2021-01-12 08:00:00 -2.8 0 Calma 13 Norte 0 -- -- 74
2021-01-12 07:00:00 -1.5 9 Noroeste 15 Noroeste 0 -- -- 68
2021-01-12 06:00:00 -1.6 9 Norte 16 Norte 0 -- -- 68
2021-01-12 05:00:00 -1.4 8 Norte 18 Norte 0 -- -- 68
2021-01-12 04:00:00 -1.2 9 Norte 18 Noroeste 0 -- -- 67
2021-01-12 03:00:00 -1.1 8 Norte 18 Norte 0 -- -- 66
2021-01-12 02:00:00 -0.9 7 Norte 16 Norte 0 -- -- 66
2021-01-12 01:00:00 -0.3 8 Norte 18 Norte 0 -- -- 63
2021-01-12 00:00:00 -0.1 7 Norte 17 Norte 0 -- -- 60
2021-01-11 23:00:00 -0.1 6 Noroeste 15 Norte 0 -- -- 60
2021-01-11 22:00:00 -0.2 4 Norte 14 Nordeste 0 -- -- 70
2021-01-11 21:00:00 0.1 4 Norte 12 Norte 0 -- -- 72
2021-01-11 20:00:00 1 3 Norte 12 Nordeste 0 -- -- 69
2021-01-11 19:00:00 1.7 5 Norte 15 Nordeste 0 -- -- 64
2021-01-11 18:00:00 3.5 6 Nordeste 22 Nordeste 0 -- -- 64
2021-01-11 17:00:00 6 7 Nordeste 21 Este 0 -- -- 63
2021-01-11 16:00:00 6.4 11 Nordeste 23 Este 0 -- -- 61
2021-01-11 15:00:00 6.6 12 Nordeste 27 Nordeste 0 -- -- 62
2021-01-11 14:00:00 6.3 13 Nordeste 27 Nordeste 0 -- -- 66
2021-01-11 13:00:00 6.2 6 Este 19 Nordeste 0 -- -- 66
2021-01-11 12:00:00 5.1 7 Este 19 Nordeste 0 -- -- 67
2021-01-11 11:00:00 4.4 10 Nordeste 24 Este 0 -- -- 68
2021-01-11 10:00:00 2.2 4 Noroeste 13 Norte 0 -- -- 83
2021-01-11 09:00:00 -0.6 5 Norte 18 Noroeste 0 -- -- 88
2021-01-11 08:00:00 -0.2 5 Noroeste 15 Norte 0 -- -- 88
2021-01-11 07:00:00 0.9 7 Norte 19 Nordeste 0 -- -- 84
2021-01-11 06:00:00 1.3 5 Norte 29 Nordeste 0 -- -- 82
2021-01-11 05:00:00 1.5 6 Norte 20 Norte 0 -- -- 82
2021-01-11 04:00:00 1.8 8 Nordeste 27 Norte 0 -- -- 81
2021-01-11 03:00:00 2 12 Nordeste 29 Nordeste 0 -- -- 82
2021-01-11 02:00:00 2 13 Nordeste 37 Nordeste 0 -- -- 84
2021-01-11 01:00:00 1.7 8 Norte 41 Nordeste 0 -- -- 86
2021-01-11 00:00:00 1.5 23 Nordeste 40 Nordeste 0 -- -- 87
2021-01-10 23:00:00 1.5 9 Norte 28 Nordeste 0 -- -- 87
2021-01-10 22:00:00 1.9 10 Norte 22 Norte 0 -- -- 85
2021-01-10 21:00:00 1.4 5 Norte 17 Nordeste 0 -- -- 87
2021-01-10 20:00:00 1.6 6 Norte 12 Norte 0 -- -- 88
2021-01-10 19:00:00 1.9 4 Norte 15 Norte 0 -- -- 87
2021-01-10 18:00:00 2.4 5 Nordeste 17 Norte 0 -- -- 85
2021-01-10 17:00:00 3.4 4 Norte 22 Nordeste 0 -- -- 85
2021-01-10 16:00:00 4.1 11 Nordeste 21 Nordeste 0 -- -- 81
2021-01-10 15:00:00 4.1 7 Nordeste 18 Nordeste 0 -- -- 82
2021-01-10 14:00:00 5 7 Noroeste 18 Nordeste 0 -- -- 81
2021-01-10 13:00:00 4.6 3 Sudeste 10 Sur 0 -- -- 83
2021-01-10 12:00:00 5.6 4 Sudoeste 10 Noroeste 0 -- -- 84
2021-01-10 11:00:00 3 5 Nordeste 12 Nordeste 1.4 -- -- 94
2021-01-10 10:00:00 0.7 0 Calma 8 Norte 0 -- -- 97
2021-01-10 09:00:00 0 3 Norte 10 Norte 0.2 -- -- 96
2021-01-10 08:00:00 0.3 0 Calma 12 Este 0 -- -- 96
2021-01-10 07:00:00 0.1 0 Calma 6 Noroeste 0 -- -- 96
2021-01-10 06:00:00 0.3 3 Sudeste 28 Este 0 -- -- 95
2021-01-10 05:00:00 0.3 3 Norte 8 Este 0 -- -- 97
2021-01-10 04:00:00 0.1 4 Norte 9 Norte 0 -- -- 96
2021-01-10 03:00:00 0 3 Nordeste 10 Este 0 -- -- 96
2021-01-10 02:00:00 -0.2 6 Este 12 Este 0 -- -- 97
2021-01-10 01:00:00 -1.6 0 Calma 5 Este 0 -- -- 97
2021-01-10 00:00:00 -1.3 0 Calma 3 Este 0 -- -- 97
2021-01-09 23:00:00 -1.1 0 Calma 5 Nordeste 0 -- -- 96
2021-01-09 22:00:00 -1.1 0 Calma 4 Nordeste 0 -- -- 96
2021-01-09 21:00:00 -0.9 0 Calma 4 Nordeste 0 -- -- 96
2021-01-09 20:00:00 -0.4 0 Calma 4 Nordeste 0 -- -- 95
2021-01-09 19:00:00 1.2 0 Calma 8 Sur 0 -- -- 93
2021-01-09 18:00:00 1.8 4 Sur 14 Sudeste 0 -- -- 93
2021-01-09 17:00:00 1.7 6 Sur 18 Sur 0 -- -- 94
2021-01-09 16:00:00 1.2 10 Sur 22 Sur 0 -- -- 97
2021-01-09 15:00:00 0.8 12 Sur 24 Sudoeste 0 -- -- 97
2021-01-09 14:00:00 1 11 Sur 31 Sur 0.2 -- -- 96
2021-01-09 13:00:00 1.6 12 Sur 26 Sur 0.4 -- -- 95
2021-01-09 12:00:00 1.9 11 Sur 25 Sur 0.6 -- -- 96
2021-01-09 11:00:00 1.7 9 Sur 23 Sur 0 -- -- 97
2021-01-09 10:00:00 1.6 9 Sur 20 Sur 0.6 -- -- 97
2021-01-09 09:00:00 2 8 Sur 19 Sur 0.2 -- -- 97
2021-01-09 08:00:00 2.6 11 Sur 27 Oeste 0.2 -- -- 96
2021-01-09 07:00:00 3.4 10 Sudoeste 32 Sudoeste 0.2 -- -- 96
2021-01-09 06:00:00 3.8 19 Sudoeste 33 Sudoeste 0.4 -- -- 96
2021-01-09 05:00:00 4.1 11 Sur 24 Sudoeste 0.2 -- -- 96
2021-01-09 04:00:00 4.6 7 Sudoeste 28 Sudoeste 0.2 -- -- 96
2021-01-09 03:00:00 5.1 5 Sudoeste 21 Sudeste 1 -- -- 96
2021-01-09 02:00:00 5.9 7 Sur 21 Sudeste 2.4 -- -- 96
2021-01-09 01:00:00 6.2 4 Sudoeste 11 Sudoeste 2.4 -- -- 97
2021-01-09 00:00:00 5.8 4 Sudoeste 9 Oeste 2 -- -- 97
2021-01-08 23:00:00 5.2 4 Sudoeste 10 Sudoeste 1.4 -- -- 96
2021-01-08 22:00:00 5.1 0 Calma 13 Norte 2.8 -- -- 96
2021-01-08 21:00:00 5 6 Noroeste 12 Norte 2 -- -- 96
2021-01-08 20:00:00 4.8 3 Noroeste 13 Norte 0.4 -- -- 96
2021-01-08 19:00:00 4.9 3 Noroeste 8 Noroeste 0.2 -- -- 96
2021-01-08 18:00:00 4.4 0 Calma 14 Noroeste 0.6 -- -- 95
2021-01-08 17:00:00 4.7 5 Noroeste 11 Noroeste 0.8 -- -- 96
2021-01-08 16:00:00 4.9 3 Noroeste 8 Oeste 2.2 -- -- 96
2021-01-08 15:00:00 4.5 2 Oeste 13 Noroeste 3.2 -- -- 96
2021-01-08 14:00:00 3.9 5 Noroeste 16 Noroeste 4.8 -- -- 95
2021-01-08 13:00:00 4 3 Norte 15 Noroeste 3.4 -- -- 94
2021-01-08 12:00:00 4.4 3 Norte 10 Nordeste 1.2 -- -- 94
2021-01-08 11:00:00 4.1 4 Nordeste 15 Nordeste 0.6 -- -- 94
2021-01-08 10:00:00 3 5 Norte 13 Noroeste 1 -- -- 95
2021-01-08 09:00:00 2.9 0 Calma 9 Noroeste 0.4 -- -- 95
2021-01-08 08:00:00 2.9 2 Oeste 20 Nordeste 0.4 -- -- 94
2021-01-08 07:00:00 2.6 12 Nordeste 26 Nordeste 0.4 -- -- 92
2021-01-08 06:00:00 2.8 9 Nordeste 25 Nordeste 0.6 -- -- 91
2021-01-08 05:00:00 2.3 5 Norte 15 Norte 0.6 -- -- 95
2021-01-08 04:00:00 1.9 6 Noroeste 14 Norte 0.4 -- -- 95
2021-01-08 03:00:00 1.7 6 Noroeste 12 Norte 0.4 -- -- 94
2021-01-08 02:00:00 1.5 5 Noroeste 11 Oeste 0.4 -- -- 94
2021-01-08 01:00:00 1.4 3 Nordeste 20 Nordeste 0.4 -- -- 93
2021-01-08 00:00:00 1.5 9 Nordeste 26 Nordeste 0 -- -- 92
2021-01-07 23:00:00 1.2 13 Nordeste 30 Nordeste 0 -- -- 93
2021-01-07 22:00:00 1.1 14 Nordeste 30 Nordeste 0 -- -- 93
2021-01-07 21:00:00 1.2 10 Nordeste 30 Nordeste 0 -- -- 92
2021-01-07 20:00:00 1.7 4 Norte 19 Noroeste 0 -- -- 90
2021-01-07 19:00:00 1.8 6 Noroeste 19 Noroeste 0 -- -- 91
2021-01-07 18:00:00 1.9 3 Noroeste 12 Noroeste 0 -- -- 91
2021-01-07 17:00:00 2.3 3 Nordeste 14 Noroeste 0 -- -- 91
2021-01-07 16:00:00 2.6 4 Noroeste 13 Noroeste 0.2 -- -- 93
2021-01-07 15:00:00 2.5 3 Noroeste 12 Noroeste 0.2 -- -- 93
2021-01-07 14:00:00 2.1 4 Noroeste 13 Noroeste 0.8 -- -- 94
2021-01-07 13:00:00 1.8 4 Noroeste 9 Noroeste 1 -- -- 93
2021-01-07 12:00:00 1.8 4 Nordeste 13 Noroeste 1.2 -- -- 94
2021-01-07 11:00:00 2 4 Nordeste 23 Nordeste 0.6 -- -- 93
2021-01-07 10:00:00 1.8 4 Norte 12 Nordeste 0.6 -- -- 93
2021-01-07 09:00:00 1.6 4 Nordeste 13 Norte 1.4 -- -- 93
2021-01-07 08:00:00 2.3 4 Norte 19 Nordeste 0 -- -- 91
2021-01-07 07:00:00 2.3 5 Nordeste 16 Nordeste 0.6 -- -- 91
2021-01-07 06:00:00 2.7 8 Nordeste 15 Nordeste 1.2 -- -- 90
2021-01-07 05:00:00 3.3 2 Oeste 16 Norte 0.8 -- -- 91
2021-01-07 04:00:00 3.4 7 Noroeste 12 Noroeste 0.2 -- -- 92
2021-01-07 03:00:00 3.2 3 Noroeste 9 Noroeste 0.4 -- -- 92
2021-01-07 02:00:00 3.2 0 Calma 5 Este 0.4 -- -- 92
2021-01-07 01:00:00 3 0 Calma 11 Sudeste 0.4 -- -- 90
2021-01-07 00:00:00 3.4 0 Calma 13 Este 0.2 -- -- 88
2021-01-06 23:00:00 3.6 5 Nordeste 12 Nordeste 0.4 -- -- 88
2021-01-06 22:00:00 4.5 5 Nordeste 19 Nordeste 0.2 -- -- 79
2021-01-06 21:00:00 5 0 Calma 18 Nordeste 0 -- -- 69
2021-01-06 20:00:00 5 8 Nordeste 18 Nordeste 0 -- -- 65
2021-01-06 19:00:00 4.4 2 Nordeste 9 Este 0 -- -- 69
2021-01-06 18:00:00 5.4 2 Este 9 Sudeste 0 -- -- 67
2021-01-06 17:00:00 6.1 5 Sudeste 19 Sudeste 0 -- -- 62
2021-01-06 16:00:00 7.3 4 Este 16 Sur 0 -- -- 59
2021-01-06 15:00:00 7.8 8 Sur 15 Sur 0 -- -- 59
2021-01-06 14:00:00 7.5 3 Sur 12 Sudoeste 0 -- -- 61
2021-01-06 13:00:00 7.2 4 Oeste 8 Sudoeste 0 -- -- 55
2021-01-06 12:00:00 4.2 0 Calma 4 Sudoeste 0 -- -- 67
2021-01-06 11:00:00 1.6 0 Calma 6 Sudoeste 0 -- -- 71
2021-01-06 10:00:00 -0.2 3 Sudoeste 12 Norte 0 -- -- 75
2021-01-06 09:00:00 -0.5 7 Norte 20 Noroeste 0 -- -- 71
2021-01-06 08:00:00 -1.1 12 Norte 20 Noroeste 0 -- -- 75
2021-01-06 07:00:00 -0.6 11 Noroeste 18 Noroeste 0 -- -- 71
2021-01-06 06:00:00 -0.5 8 Norte 19 Norte 0 -- -- 69
2021-01-06 05:00:00 -0.3 11 Norte 17 Norte 0 -- -- 68
2021-01-06 04:00:00 -0.5 8 Norte 17 Norte 0 -- -- 70
2021-01-06 03:00:00 0 9 Norte 19 Noroeste 0 -- -- 69
2021-01-06 02:00:00 -0.1 9 Norte 17 Norte 0 -- -- 70
2021-01-06 01:00:00 0.8 8 Norte 24 Nordeste 0 -- -- 67
2021-01-06 00:00:00 1.4 8 Nordeste 26 Nordeste 0 -- -- 64
2021-01-05 23:00:00 1.7 12 Nordeste 31 Nordeste 0 -- -- 66
2021-01-05 22:00:00 1.6 8 Nordeste 22 Nordeste 0 -- -- 70
2021-01-05 21:00:00 1.2 6 Nordeste 15 Este 0 -- -- 74
2021-01-05 20:00:00 0.1 3 Sur 14 Este 0 -- -- 78
2021-01-05 19:00:00 0.5 2 Este 12 Nordeste 0 -- -- 74
2021-01-05 18:00:00 3 5 Nordeste 17 Nordeste 0 -- -- 60
2021-01-05 17:00:00 4.5 8 Nordeste 18 Nordeste 0 -- -- 60
2021-01-05 16:00:00 6.5 6 Nordeste 13 Nordeste 0 -- -- 53
2021-01-05 15:00:00 7.3 6 Nordeste 23 Sudoeste 0 -- -- 54
2021-01-05 14:00:00 8 7 Sudoeste 18 Sudoeste 0 -- -- 50
2021-01-05 13:00:00 7.2 4 Sur 7 Sudoeste 0 -- -- 63
2021-01-05 12:00:00 5.7 3 Sur 7 Sur 0 -- -- 73
2021-01-05 11:00:00 3.3 0 Calma 2 Sur 0.2 -- -- 85
2021-01-05 10:00:00 -1.5 0 Calma 3 Este 0 -- -- 97
2021-01-05 09:00:00 -4.7 0 Calma 3 Este 0 -- -- 95
2021-01-05 08:00:00 -4.5 0 Calma 2 Este 0 -- -- 95
2021-01-05 07:00:00 -4.3 0 Calma 3 Este 0 -- -- 95
2021-01-05 06:00:00 -3.8 0 Calma 2 Este 0 -- -- 96
2021-01-05 05:00:00 -3.8 0 Calma 4 Este 0 -- -- 95
2021-01-05 04:00:00 -3.5 0 Calma 2 Este 0 -- -- 95
2021-01-05 03:00:00 -3.1 0 Calma 4 Este 0 -- -- 95
2021-01-05 02:00:00 -2.9 0 Calma 5 Este 0 -- -- 95
2021-01-05 01:00:00 -2.3 3 Este 5 Este 0 -- -- 95
2021-01-05 00:00:00 -1.9 0 Calma 5 Este 0 -- -- 95
2021-01-04 23:00:00 -1.4 0 Calma 3 Este 0 -- -- 95
2021-01-04 22:00:00 -0.9 0 Calma 4 Nordeste 0 -- -- 95
2021-01-04 21:00:00 -0.3 3 Nordeste 6 Nordeste 0 -- -- 94
2021-01-04 20:00:00 1.4 2 Noroeste 6 Oeste 0 -- -- 95
2021-01-04 19:00:00 1.3 0 Calma 5 Sudoeste 0 -- -- 93
2021-01-04 18:00:00 1.6 3 Oeste 7 Sudoeste 0.6 -- -- 92
2021-01-04 17:00:00 1.9 3 Sudoeste 11 Sur 0 -- -- 93
2021-01-04 16:00:00 2.1 2 Sudeste 8 Sur 0.4 -- -- 93
2021-01-04 15:00:00 2.4 5 Sur 12 Este 0 -- -- 90
2021-01-04 14:00:00 1.9 4 Sudeste 10 Sudoeste 0 -- -- 91
2021-01-04 13:00:00 1.9 4 Sudoeste 9 Sudoeste 0 -- -- 89
2021-01-04 12:00:00 1.1 5 Sur 12 Sur 0 -- -- 95
2021-01-04 11:00:00 -0.1 0 Calma 4 Sudoeste 0 -- -- 97
2021-01-04 10:00:00 -2.4 0 Calma 2 Oeste 0 -- -- 96
2021-01-04 09:00:00 -3.9 0 Calma 4 Sudoeste 0 -- -- 94
2021-01-04 08:00:00 -3.9 0 Calma 5 Nordeste 0 -- -- 93
2021-01-04 07:00:00 -3.5 0 Calma 7 Nordeste 0 -- -- 94
2021-01-04 06:00:00 -3.5 0 Calma 3 Nordeste 0 -- -- 94
2021-01-04 05:00:00 -3.7 0 Calma 8 Nordeste 0 -- -- 93
2021-01-04 04:00:00 -3.6 2 Nordeste 5 Nordeste 0 -- -- 93
2021-01-04 03:00:00 -3.4 0 Calma 4 Nordeste 0 -- -- 92
2021-01-04 02:00:00 -3.1 0 Calma 3 Nordeste 0 -- -- 92
2021-01-04 01:00:00 -2.7 0 Calma 4 Sudoeste 0 -- -- 92
2021-01-04 00:00:00 -2 0 Calma 6 Nordeste 0 -- -- 90
2021-01-03 23:00:00 -1.6 0 Calma 2 Este 0 -- -- 88
2021-01-03 22:00:00 -1 2 Nordeste 8 Nordeste 0 -- -- 87
2021-01-03 21:00:00 -0.1 2 Norte 10 Este 0 -- -- 82
2021-01-03 20:00:00 1.5 4 Este 15 Este 0 -- -- 75
2021-01-03 19:00:00 3.1 3 Este 17 Sudoeste 0 -- -- 66
2021-01-03 18:00:00 4.8 3 Noroeste 16 Oeste 0 -- -- 58
2021-01-03 17:00:00 7.7 5 Oeste 24 Oeste 0 -- -- 48
2021-01-03 16:00:00 8 9 Oeste 23 Sudoeste 0 -- -- 49
2021-01-03 15:00:00 8.1 14 Sudoeste 25 Oeste 0 -- -- 48
2021-01-03 14:00:00 7.5 13 Sudoeste 29 Oeste 0 -- -- 51
2021-01-03 13:00:00 7.7 12 Oeste 27 Sudoeste 0 -- -- 49
2021-01-03 12:00:00 6.1 4 Sudeste 11 Sudeste 0 -- -- 55
2021-01-03 11:00:00 4.2 3 Sur 6 Sudeste 0 -- -- 61
2021-01-03 10:00:00 -1.1 0 Calma 4 Este 0 -- -- 82
2021-01-03 09:00:00 -5.1 0 Calma 4 Este 0 -- -- 88
2021-01-03 08:00:00 -5 0 Calma 3 Nordeste 0 -- -- 87
2021-01-03 07:00:00 -4.7 0 Calma 3 Este 0 -- -- 85
2021-01-03 06:00:00 -4.4 0 Calma 2 Nordeste 0 -- -- 81
2021-01-03 05:00:00 -4 2 Nordeste 4 Nordeste 0 -- -- 82
2021-01-03 04:00:00 -1.4 5 Nordeste 10 Norte 0 -- -- 66
2021-01-03 03:00:00 -1.6 5 Norte 11 Noroeste 0 -- -- 67
2021-01-03 02:00:00 -1.4 3 Noroeste 10 Noroeste 0 -- -- 67
2021-01-03 01:00:00 -0.4 3 Noroeste 9 Norte 0 -- -- 63
2021-01-03 00:00:00 -0.2 3 Noroeste 19 Este 0 -- -- 66
2021-01-02 23:00:00 0.1 3 Norte 11 Norte 0 -- -- 67
2021-01-02 22:00:00 0 3 Norte 20 Nordeste 0 -- -- 82
2021-01-02 21:00:00 -1.1 0 Calma 2 Sudeste 0 -- -- 86
2021-01-02 20:00:00 -0.1 0 Calma 5 Este 0 -- -- 81
2021-01-02 19:00:00 0.3 0 Calma 7 Nordeste 0 -- -- 76
2021-01-02 18:00:00 3.5 0 Calma 18 Noroeste 0 -- -- 62
2021-01-02 17:00:00 6.6 6 Oeste 21 Oeste 0 -- -- 50
2021-01-02 16:00:00 7.5 7 Oeste 19 Sudoeste 0 -- -- 48
2021-01-02 15:00:00 7 9 Sudoeste 21 Oeste 0 -- -- 50
2021-01-02 14:00:00 7.1 8 Noroeste 20 Noroeste 0 -- -- 54